createdAt,value
2023-01-08T00:00:46.540Z,2.70
2023-01-08T00:03:13.264Z,2.72
2023-01-08T00:05:39.710Z,2.97
2023-01-08T00:08:08.433Z,2.78
2023-01-08T00:10:38.865Z,2.85
2023-01-08T00:13:06.431Z,2.47
2023-01-08T00:15:35.822Z,2.40
2023-01-08T00:18:02.356Z,2.40
2023-01-08T00:20:28.972Z,2.80
2023-01-08T00:22:55.351Z,2.65
2023-01-08T00:25:21.758Z,2.53
2023-01-08T00:27:48.129Z,2.70
2023-01-08T00:30:14.601Z,2.47
2023-01-08T00:32:40.984Z,2.70
2023-01-08T00:35:07.604Z,2.80
2023-01-08T00:37:33.952Z,2.60
2023-01-08T00:40:00.355Z,2.40
2023-01-08T00:42:26.695Z,2.67
2023-01-08T00:44:53.068Z,2.70
2023-01-08T00:47:19.488Z,2.50
2023-01-08T00:49:45.835Z,2.67
2023-01-08T00:52:12.559Z,2.80
2023-01-08T00:54:38.929Z,2.80
2023-01-08T00:57:05.349Z,2.67
2023-01-08T00:59:31.687Z,2.63
2023-01-08T01:01:58.168Z,3.03
2023-01-08T01:04:26.641Z,2.80
2023-01-08T01:06:53.036Z,2.80
2023-01-08T01:09:19.425Z,2.85
2023-01-08T01:11:45.806Z,2.88
2023-01-08T01:14:12.205Z,2.60
2023-01-08T01:16:40.084Z,3.33
2023-01-08T01:19:06.499Z,2.60
2023-01-08T01:21:32.984Z,2.70
2023-01-08T01:24:01.864Z,2.70
2023-01-08T01:26:28.922Z,2.50
2023-01-08T01:28:57.189Z,3.05
2023-01-08T01:31:24.687Z,3.20
2023-01-08T01:33:51.474Z,3.05
2023-01-08T01:36:20.001Z,2.75
2023-01-08T01:38:48.825Z,2.47
2023-01-08T01:41:25.969Z,2.67
2023-01-08T01:43:53.579Z,2.63
2023-01-08T01:46:38.507Z,2.80
2023-01-08T01:49:15.315Z,2.75
2023-01-08T01:51:47.602Z,2.47
2023-01-08T01:54:14.137Z,2.50
2023-01-08T01:56:42.095Z,2.17
2023-01-08T01:59:08.763Z,1.90
2023-01-08T02:01:35.612Z,1.90
2023-01-08T02:04:02.353Z,1.73
2023-01-08T02:06:43.535Z,1.50
2023-01-08T02:09:35.587Z,1.40
2023-01-08T02:12:19.317Z,1.30
2023-01-08T02:15:05.214Z,1.10
2023-01-08T02:17:48.341Z,0.90
2023-01-08T02:20:38.527Z,0.80
2023-01-08T02:23:22.832Z,0.80
2023-01-08T02:26:04.512Z,0.70
2023-01-08T02:28:33.981Z,0.90
2023-01-08T02:31:00.509Z,0.70
2023-01-08T02:33:30.234Z,0.75
2023-01-08T02:36:19.955Z,0.77
2023-01-08T02:39:04.606Z,0.75
2023-01-08T02:41:54.051Z,0.80
2023-01-08T02:44:28.913Z,0.68
2023-01-08T02:46:57.498Z,0.75
2023-01-08T02:49:29.980Z,0.63
2023-01-08T02:52:00.301Z,0.60
2023-01-08T02:54:32.075Z,0.60
2023-01-08T02:57:04.154Z,0.80
2023-01-08T02:59:33.404Z,1.05
2023-01-08T03:02:02.478Z,0.70
2023-01-08T03:04:34.451Z,0.85
2023-01-08T03:07:02.804Z,0.90
2023-01-08T03:09:29.904Z,0.90
2023-01-08T03:12:11.403Z,1.05
2023-01-08T03:14:46.474Z,1.23
2023-01-08T03:17:24.726Z,1.00
2023-01-08T03:19:59.989Z,1.13
2023-01-08T03:22:28.356Z,0.93
2023-01-08T03:24:56.871Z,1.00
2023-01-08T03:27:29.049Z,1.60
2023-01-08T03:29:58.344Z,0.88
2023-01-08T03:32:27.267Z,0.77
2023-01-08T03:34:57.120Z,1.10
2023-01-08T03:37:29.183Z,1.15
2023-01-08T03:40:06.363Z,1.20
2023-01-08T03:42:33.471Z,1.30
2023-01-08T03:45:01.082Z,1.33
2023-01-08T03:47:30.709Z,1.60
2023-01-08T03:50:01.312Z,1.42
2023-01-08T03:52:30.294Z,1.70
2023-01-08T03:54:56.934Z,1.45
2023-01-08T03:57:23.606Z,1.73
2023-01-08T03:59:49.956Z,1.90
2023-01-08T04:02:16.840Z,2.00
2023-01-08T04:04:43.927Z,1.90
2023-01-08T04:07:11.766Z,2.42
2023-01-08T04:09:38.217Z,2.30
2023-01-08T04:12:05.140Z,2.40
2023-01-08T04:14:31.513Z,2.70
2023-01-08T04:16:57.890Z,2.80
2023-01-08T04:19:24.259Z,2.30
2023-01-08T04:21:51.575Z,2.70
2023-01-08T04:24:18.321Z,2.70
2023-01-08T04:26:44.795Z,2.83
2023-01-08T04:29:12.883Z,2.33
2023-01-08T04:31:39.365Z,2.20
2023-01-08T04:34:05.779Z,2.58
2023-01-08T04:36:32.406Z,2.42
2023-01-08T04:38:58.785Z,2.85
2023-01-08T04:41:25.154Z,2.60
2023-01-08T04:43:51.535Z,2.22
2023-01-08T04:46:17.996Z,2.17
2023-01-08T04:48:44.378Z,2.30
2023-01-08T04:51:11.066Z,2.53
2023-01-08T04:53:40.410Z,1.87
2023-01-08T04:56:08.963Z,2.25
2023-01-08T04:58:36.459Z,2.30
2023-01-08T05:01:13.648Z,2.17
2023-01-08T05:03:40.348Z,1.98
2023-01-08T05:06:07.505Z,2.10
2023-01-08T05:08:33.991Z,2.00
2023-01-08T05:11:01.309Z,2.40
2023-01-08T05:13:28.989Z,2.30
2023-01-08T05:15:58.945Z,2.08
2023-01-08T05:18:25.297Z,1.97
2023-01-08T05:20:51.656Z,1.83
2023-01-08T05:23:18.104Z,1.88
2023-01-08T05:25:44.473Z,1.50
2023-01-08T05:28:10.829Z,1.88
2023-01-08T05:30:37.400Z,1.80
2023-01-08T05:33:03.812Z,1.90
2023-01-08T05:35:30.191Z,2.10
2023-01-08T05:37:59.121Z,1.60
2023-01-08T05:40:25.553Z,1.90
2023-01-08T05:42:52.173Z,1.80
2023-01-08T05:45:18.622Z,1.70
2023-01-08T05:47:45.020Z,1.48
2023-01-08T05:50:11.389Z,1.60
2023-01-08T05:52:37.764Z,1.60
2023-01-08T05:55:04.403Z,1.57
2023-01-08T05:57:30.764Z,1.90
2023-01-08T05:59:57.155Z,1.90
2023-01-08T06:02:23.567Z,2.38
2023-01-08T06:04:50.623Z,2.50
2023-01-08T06:07:17.056Z,2.30
2023-01-08T06:09:43.478Z,2.25
2023-01-08T06:12:09.869Z,2.95
2023-01-08T06:14:36.283Z,2.70
2023-01-08T06:17:02.611Z,2.85
2023-01-08T06:19:28.995Z,3.20
2023-01-08T06:21:55.374Z,2.83
2023-01-08T06:24:21.748Z,2.78
2023-01-08T06:26:48.124Z,2.50
2023-01-08T06:29:14.494Z,2.30
2023-01-08T06:31:40.914Z,2.00
2023-01-08T06:34:07.335Z,1.90
2023-01-08T06:36:33.744Z,1.77
2023-01-08T06:39:00.131Z,1.60
2023-01-08T06:41:26.486Z,1.48
2023-01-08T06:43:52.848Z,1.20
2023-01-08T06:46:19.298Z,1.30
2023-01-08T06:48:45.678Z,1.33
2023-01-08T06:51:12.056Z,1.02
2023-01-08T06:53:38.404Z,1.33
2023-01-08T06:56:05.149Z,1.10
2023-01-08T06:58:31.641Z,0.95
2023-01-08T07:00:58.994Z,1.00
2023-01-08T07:03:25.801Z,1.17
2023-01-08T07:05:52.254Z,1.05
2023-01-08T07:08:18.958Z,1.03
2023-01-08T07:10:45.384Z,0.90
2023-01-08T07:13:12.772Z,1.00
2023-01-08T07:15:40.064Z,1.17
2023-01-08T07:18:11.917Z,1.00
2023-01-08T07:20:38.494Z,0.80
2023-01-08T07:23:06.968Z,1.00
2023-01-08T07:25:33.400Z,1.30
2023-01-08T07:27:59.963Z,1.25
2023-01-08T07:30:30.029Z,0.90
2023-01-08T07:33:01.300Z,1.10
2023-01-08T07:35:28.607Z,1.15
2023-01-08T07:37:55.691Z,1.10
2023-01-08T07:40:22.141Z,1.20
2023-01-08T07:42:48.505Z,1.02
2023-01-08T07:45:15.041Z,1.10
2023-01-08T07:47:41.424Z,0.90
2023-01-08T07:50:08.579Z,0.98
2023-01-08T07:52:34.938Z,1.13
2023-01-08T07:55:01.310Z,1.20
2023-01-08T07:57:29.741Z,1.37
2023-01-08T07:59:56.097Z,1.42
2023-01-08T08:02:22.624Z,1.60
2023-01-08T08:04:49.059Z,1.30
2023-01-08T08:07:15.405Z,1.67
2023-01-08T08:09:41.772Z,2.03
2023-01-08T08:12:08.726Z,1.60
2023-01-08T08:14:35.116Z,1.90
2023-01-08T08:17:01.520Z,2.00
2023-01-08T08:19:27.878Z,1.90
2023-01-08T08:21:54.250Z,1.73
2023-01-08T08:24:20.641Z,1.70
2023-01-08T08:26:47.031Z,2.40
2023-01-08T08:29:13.528Z,1.60
2023-01-08T08:31:39.970Z,2.15
2023-01-08T08:34:07.878Z,1.93
2023-01-08T08:36:34.243Z,1.60
2023-01-08T08:39:02.431Z,1.98
2023-01-08T08:41:28.965Z,1.52
2023-01-08T08:43:55.314Z,1.85
2023-01-08T08:46:21.855Z,1.50
2023-01-08T08:48:48.238Z,1.33
2023-01-08T08:51:14.602Z,1.17
2023-01-08T08:53:41.016Z,1.38
2023-01-08T08:56:07.677Z,1.27
2023-01-08T08:58:35.925Z,1.30
2023-01-08T09:01:03.961Z,2.50
2023-01-08T09:03:30.923Z,1.40
2023-01-08T09:05:59.769Z,1.05
2023-01-08T09:08:26.658Z,1.70
2023-01-08T09:10:53.042Z,1.03
2023-01-08T09:13:20.045Z,1.38
2023-01-08T09:15:46.495Z,1.80
2023-01-08T09:18:14.628Z,1.10
2023-01-08T09:20:42.229Z,2.13
2023-01-08T09:23:09.480Z,1.83
2023-01-08T09:25:35.903Z,1.90
2023-01-08T09:28:08.285Z,1.30
2023-01-08T09:30:35.339Z,1.00
2023-01-08T09:33:03.692Z,0.98
2023-01-08T09:35:31.620Z,0.90
2023-01-08T09:37:58.329Z,1.33
2023-01-08T09:40:31.461Z,1.00
2023-01-08T09:43:01.381Z,1.35
2023-01-08T09:45:30.897Z,1.60
2023-01-08T09:48:00.316Z,0.90
2023-01-08T09:50:28.765Z,1.27
2023-01-08T09:52:55.212Z,1.50
2023-01-08T09:55:21.775Z,1.20
2023-01-08T09:57:48.880Z,1.05
2023-01-08T10:00:18.598Z,1.00
2023-01-08T10:02:45.589Z,0.85
2023-01-08T10:05:15.465Z,1.30
2023-01-08T10:07:42.508Z,1.05
2023-01-08T10:10:20.697Z,1.02
2023-01-08T10:12:49.620Z,1.20
2023-01-08T10:15:19.369Z,1.10
2023-01-08T10:17:52.791Z,2.05
2023-01-08T10:20:22.055Z,1.50
2023-01-08T10:22:49.482Z,1.20
2023-01-08T10:25:18.893Z,1.10
2023-01-08T10:27:59.922Z,1.40
2023-01-08T10:30:39.969Z,1.20
2023-01-08T10:33:12.696Z,1.33
2023-01-08T10:35:41.411Z,1.70
2023-01-08T10:38:25.843Z,1.37
2023-01-08T10:40:52.752Z,1.00
2023-01-08T10:43:22.464Z,1.60
2023-01-08T10:46:01.122Z,1.33
2023-01-08T10:48:46.175Z,1.20
2023-01-08T10:51:20.382Z,1.70
2023-01-08T10:53:47.066Z,1.23
2023-01-08T10:56:21.587Z,1.77
2023-01-08T10:58:48.525Z,1.30
2023-01-08T11:01:23.213Z,1.30
2023-01-08T11:03:52.760Z,1.37
2023-01-08T11:06:27.521Z,1.05
2023-01-08T11:08:56.951Z,1.58
2023-01-08T11:11:24.512Z,1.55
2023-01-08T11:14:02.021Z,1.58
2023-01-08T11:16:38.087Z,1.20
2023-01-08T11:19:05.635Z,1.58
2023-01-08T11:21:36.607Z,1.50
2023-01-08T11:24:22.644Z,1.40
2023-01-08T11:26:53.360Z,1.55
2023-01-08T11:29:29.619Z,1.70
2023-01-08T11:32:08.164Z,1.48
2023-01-08T11:34:50.310Z,1.60
2023-01-08T11:37:26.682Z,1.20
2023-01-08T11:39:53.739Z,1.25
2023-01-08T11:42:20.049Z,1.57
2023-01-08T11:44:51.883Z,1.23
2023-01-08T11:47:43.277Z,1.42
2023-01-08T11:50:24.656Z,1.50
2023-01-08T11:53:19.736Z,1.10
2023-01-08T11:56:19.135Z,1.50
2023-01-08T11:59:02.811Z,1.10
2023-01-08T12:01:44.823Z,1.05
2023-01-08T12:04:28.627Z,1.35
2023-01-08T12:07:20.663Z,1.15
2023-01-08T12:10:01.055Z,1.47
2023-01-08T12:12:47.369Z,1.45
2023-01-08T12:15:20.923Z,1.00
2023-01-08T12:18:00.554Z,1.30
2023-01-08T12:20:37.014Z,1.20
2023-01-08T12:23:34.815Z,1.30
2023-01-08T12:26:34.230Z,1.42
2023-01-08T12:29:32.367Z,1.42
2023-01-08T12:32:13.698Z,1.15
2023-01-08T12:34:52.325Z,1.50
2023-01-08T12:37:27.052Z,1.67
2023-01-08T12:40:07.274Z,1.75
2023-01-08T12:42:44.487Z,1.50
2023-01-08T12:45:26.643Z,1.23
2023-01-08T12:48:02.923Z,1.65
2023-01-08T12:50:47.855Z,1.33
2023-01-08T12:54:11.785Z,1.60
2023-01-08T12:56:50.621Z,1.88
2023-01-08T12:59:42.545Z,1.73
2023-01-08T13:02:44.972Z,1.20
2023-01-08T13:05:12.955Z,1.40
2023-01-08T13:07:46.015Z,1.40
2023-01-08T13:10:35.551Z,1.00
2023-01-08T13:13:03.308Z,1.10
2023-01-08T13:15:32.462Z,1.10
2023-01-08T13:18:15.187Z,1.23
2023-01-08T13:20:41.927Z,2.08
2023-01-08T13:23:24.517Z,1.30
2023-01-08T13:25:53.914Z,1.65
2023-01-08T13:28:35.470Z,1.50
2023-01-08T13:31:12.484Z,2.53
2023-01-08T13:33:41.678Z,1.20
2023-01-08T13:36:20.956Z,1.50
2023-01-08T13:39:25.036Z,1.35
2023-01-08T13:41:59.436Z,1.65
2023-01-08T13:44:32.062Z,1.60
2023-01-08T13:47:01.858Z,2.25
2023-01-08T13:49:36.329Z,2.22
2023-01-08T13:52:03.187Z,1.20
2023-01-08T13:54:37.217Z,2.25
2023-01-08T13:57:23.396Z,1.43
2023-01-08T13:59:54.019Z,1.20
2023-01-08T14:02:29.827Z,1.50
2023-01-08T14:04:58.252Z,1.52
2023-01-08T14:07:25.066Z,1.17
2023-01-08T14:09:52.371Z,1.27
2023-01-08T14:12:24.148Z,0.90
2023-01-08T14:14:53.553Z,1.08
2023-01-08T14:17:22.106Z,1.10
2023-01-08T14:19:49.128Z,1.25
2023-01-08T14:22:29.767Z,1.00
2023-01-08T14:25:00.389Z,0.90
2023-01-08T14:27:29.827Z,1.17
2023-01-08T14:29:56.732Z,1.10
2023-01-08T14:32:29.356Z,1.08
2023-01-08T14:34:58.654Z,1.00
2023-01-08T14:37:25.112Z,0.73
2023-01-08T14:39:54.489Z,1.00
2023-01-08T14:42:53.226Z,1.00
2023-01-08T14:45:23.789Z,0.90
2023-01-08T14:47:56.118Z,0.90
2023-01-08T14:50:35.449Z,0.75
2023-01-08T14:53:32.838Z,1.05
2023-01-08T14:56:00.494Z,0.90
2023-01-08T14:58:30.742Z,0.73
2023-01-08T15:01:02.849Z,0.80
2023-01-08T15:03:32.307Z,1.08
2023-01-08T15:05:59.399Z,0.68
2023-01-08T15:08:33.118Z,0.70
2023-01-08T15:11:15.398Z,1.20
2023-01-08T15:13:41.909Z,1.50
2023-01-08T15:16:18.188Z,1.13
2023-01-08T15:18:47.423Z,1.10
2023-01-08T15:21:22.343Z,0.90
2023-01-08T15:23:51.491Z,0.70
2023-01-08T15:26:18.405Z,0.70
2023-01-08T15:28:49.558Z,0.77
2023-01-08T15:31:28.164Z,0.80
2023-01-08T15:33:55.147Z,0.82
2023-01-08T15:36:22.108Z,0.57
2023-01-08T15:38:49.380Z,0.50
2023-01-08T15:41:42.064Z,0.60
2023-01-08T15:44:10.127Z,0.70
2023-01-08T15:46:36.577Z,0.80
2023-01-08T15:49:03.545Z,0.60
2023-01-08T15:51:33.065Z,0.70
2023-01-08T15:54:00.471Z,0.50
2023-01-08T15:56:27.024Z,0.60
2023-01-08T15:58:53.411Z,0.95
2023-01-08T16:01:20.108Z,0.60
2023-01-08T16:03:46.613Z,0.70
2023-01-08T16:06:13.033Z,0.60
2023-01-08T16:08:39.407Z,0.60
2023-01-08T16:11:05.796Z,0.60
2023-01-08T16:13:32.159Z,0.70
2023-01-08T16:15:58.565Z,1.00
2023-01-08T16:18:24.948Z,1.40
2023-01-08T16:21:00.272Z,1.30
2023-01-08T16:23:26.663Z,1.05
2023-01-08T16:25:53.040Z,1.13
2023-01-08T16:28:19.416Z,0.87
2023-01-08T16:30:45.786Z,0.73
2023-01-08T16:33:12.183Z,0.95
2023-01-08T16:35:38.555Z,0.88
2023-01-08T16:38:04.965Z,0.98
2023-01-08T16:40:31.369Z,1.00
2023-01-08T16:43:03.616Z,0.90
2023-01-08T16:45:30.048Z,0.82
2023-01-08T16:47:56.431Z,1.08
2023-01-08T16:50:22.783Z,1.20
2023-01-08T16:52:50.749Z,1.20
2023-01-08T16:55:17.121Z,0.77
2023-01-08T16:57:43.773Z,0.88
2023-01-08T17:00:11.023Z,1.13
2023-01-08T17:02:37.980Z,1.30
2023-01-08T17:05:04.647Z,1.20
2023-01-08T17:07:31.112Z,1.13
2023-01-08T17:09:57.488Z,1.40
2023-01-08T17:12:23.898Z,1.58
2023-01-08T17:14:50.775Z,1.40
2023-01-08T17:17:17.239Z,1.80
2023-01-08T17:19:43.611Z,2.38
2023-01-08T17:22:09.972Z,2.72
2023-01-08T17:24:36.428Z,2.30
2023-01-08T17:27:02.858Z,2.70
2023-01-08T17:29:29.303Z,2.07
2023-01-08T17:31:55.681Z,2.33
2023-01-08T17:34:22.208Z,2.03
2023-01-08T17:36:48.625Z,1.30
2023-01-08T17:39:15.035Z,1.90
2023-01-08T17:42:00.167Z,2.13
2023-01-08T17:44:26.847Z,1.70
2023-01-08T17:46:53.255Z,1.73
2023-01-08T17:49:20.147Z,1.45
2023-01-08T17:51:46.536Z,1.58
2023-01-08T17:54:15.034Z,1.40
2023-01-08T17:56:41.933Z,1.27
2023-01-08T17:59:13.984Z,1.42
2023-01-08T18:01:40.436Z,1.30
2023-01-08T18:04:07.014Z,1.40
2023-01-08T18:06:33.433Z,1.13
2023-01-08T18:09:00.190Z,1.20
2023-01-08T18:11:27.547Z,1.40
2023-01-08T18:13:58.181Z,1.52
2023-01-08T18:16:25.324Z,1.40
2023-01-08T18:18:52.332Z,1.30
2023-01-08T18:21:19.685Z,1.60
2023-01-08T18:23:48.961Z,1.33
2023-01-08T18:26:16.630Z,1.20
2023-01-08T18:28:43.182Z,1.50
2023-01-08T18:31:11.184Z,1.40
2023-01-08T18:33:38.311Z,1.38
2023-01-08T18:36:09.444Z,1.30
2023-01-08T18:38:38.072Z,1.42
2023-01-08T18:41:05.492Z,1.95
2023-01-08T18:43:33.009Z,1.30
2023-01-08T18:46:00.663Z,2.00
2023-01-08T18:48:30.834Z,1.45
2023-01-08T18:50:57.487Z,1.50
2023-01-08T18:53:23.995Z,1.80
2023-01-08T18:55:50.430Z,1.73
2023-01-08T18:58:16.836Z,1.30
2023-01-08T19:00:43.234Z,1.40
2023-01-08T19:03:10.376Z,1.20
2023-01-08T19:05:43.229Z,1.90
2023-01-08T19:08:10.323Z,1.20
2023-01-08T19:10:38.492Z,1.70
2023-01-08T19:13:06.062Z,2.00
2023-01-08T19:15:33.188Z,4.22
2023-01-08T19:18:00.119Z,2.90
2023-01-08T19:20:27.862Z,1.33
2023-01-08T19:22:54.400Z,2.17
2023-01-08T19:25:21.257Z,1.98
2023-01-08T19:27:47.666Z,1.80
2023-01-08T19:30:14.238Z,1.58
2023-01-08T19:32:40.600Z,2.10
2023-01-08T19:35:07.588Z,1.58
2023-01-08T19:37:33.954Z,1.67
2023-01-08T19:40:03.035Z,1.60
2023-01-08T19:42:48.188Z,1.42
2023-01-08T19:45:15.047Z,1.20
2023-01-08T19:47:41.980Z,1.33
2023-01-08T19:50:09.309Z,1.30
2023-01-08T19:52:35.872Z,1.05
2023-01-08T19:55:02.520Z,1.30
2023-01-08T19:57:29.059Z,1.43
2023-01-08T19:59:55.493Z,1.58
2023-01-08T20:02:22.022Z,1.30
2023-01-08T20:04:48.525Z,1.90
2023-01-08T20:07:15.205Z,1.38
2023-01-08T20:09:42.397Z,1.30
2023-01-08T20:12:08.989Z,1.30
2023-01-08T20:14:35.469Z,1.27
2023-01-08T20:17:02.344Z,1.60
2023-01-08T20:19:28.876Z,1.83
2023-01-08T20:21:55.570Z,1.23
2023-01-08T20:24:22.120Z,1.13
2023-01-08T20:26:48.564Z,1.70
2023-01-08T20:29:16.492Z,1.50
2023-01-08T20:31:44.142Z,1.40
2023-01-08T20:34:15.382Z,1.00
2023-01-08T20:36:42.948Z,1.23
2023-01-08T20:39:12.939Z,1.35
2023-01-08T20:41:43.472Z,1.60
2023-01-08T20:44:16.249Z,1.48
2023-01-08T20:46:42.899Z,1.67
2023-01-08T20:49:13.927Z,1.40
2023-01-08T20:51:46.313Z,1.40
2023-01-08T20:54:17.947Z,1.30
2023-01-08T20:56:44.739Z,1.02
2023-01-08T20:59:11.576Z,1.10
2023-01-08T21:01:38.225Z,1.30
2023-01-08T21:04:07.290Z,1.65
2023-01-08T21:06:34.924Z,1.05
2023-01-08T21:09:08.659Z,1.67
2023-01-08T21:11:37.530Z,1.73
2023-01-08T21:14:04.705Z,1.75
2023-01-08T21:16:32.218Z,1.20
2023-01-08T21:18:58.891Z,1.30
2023-01-08T21:21:32.880Z,1.27
2023-01-08T21:24:04.116Z,1.10
2023-01-08T21:26:32.087Z,1.20
2023-01-08T21:28:59.607Z,1.65
2023-01-08T21:31:28.288Z,1.45
2023-01-08T21:33:56.644Z,1.50
2023-01-08T21:36:26.215Z,1.60
2023-01-08T21:38:53.336Z,1.40
2023-01-08T21:41:41.056Z,1.48
2023-01-08T21:44:34.559Z,1.40
2023-01-08T21:47:02.487Z,1.50
2023-01-08T21:49:29.242Z,1.40
2023-01-08T21:52:14.051Z,1.73
2023-01-08T21:54:40.701Z,1.73
2023-01-08T21:57:08.363Z,1.60
2023-01-08T21:59:35.193Z,1.92
2023-01-08T22:02:02.107Z,1.70
2023-01-08T22:04:28.698Z,1.77
2023-01-08T22:06:55.171Z,1.85
2023-01-08T22:09:21.607Z,1.70
2023-01-08T22:11:48.012Z,1.75
2023-01-08T22:14:14.386Z,1.50
2023-01-08T22:16:40.844Z,2.30
2023-01-08T22:19:07.233Z,1.63
2023-01-08T22:21:33.624Z,1.83
2023-01-08T22:24:00.078Z,2.28
2023-01-08T22:26:26.537Z,1.90
2023-01-08T22:28:52.954Z,1.95
2023-01-08T22:31:19.339Z,1.90
2023-01-08T22:33:45.756Z,2.10
2023-01-08T22:36:13.851Z,1.83
2023-01-08T22:38:40.753Z,2.00
2023-01-08T22:41:18.817Z,2.58
2023-01-08T22:43:45.216Z,1.60
2023-01-08T22:46:16.233Z,1.75
2023-01-08T22:48:43.861Z,1.80
2023-01-08T22:51:10.926Z,1.70
2023-01-08T22:53:37.628Z,1.70
2023-01-08T22:56:12.090Z,2.03
2023-01-08T22:58:40.488Z,1.80
2023-01-08T23:01:14.255Z,2.25
2023-01-08T23:03:42.983Z,1.80
2023-01-08T23:06:14.273Z,2.05
2023-01-08T23:08:42.413Z,1.90
2023-01-08T23:11:10.747Z,1.40
2023-01-08T23:13:37.687Z,1.80
2023-01-08T23:16:06.627Z,1.93
2023-01-08T23:18:33.182Z,1.92
2023-01-08T23:21:03.923Z,1.85
2023-01-08T23:23:30.317Z,1.48
2023-01-08T23:25:56.795Z,1.70
2023-01-08T23:28:23.433Z,1.60
2023-01-08T23:30:49.806Z,1.90
2023-01-08T23:33:16.172Z,2.42
2023-01-08T23:35:42.671Z,1.50
2023-01-08T23:38:09.033Z,1.85
2023-01-08T23:40:35.379Z,1.67
2023-01-08T23:43:01.788Z,1.60
2023-01-08T23:45:28.257Z,2.08
2023-01-08T23:47:54.668Z,2.13
2023-01-08T23:50:21.049Z,2.13
2023-01-08T23:52:47.413Z,2.00
2023-01-08T23:55:13.782Z,1.98
2023-01-08T23:57:40.163Z,1.70
